sensor_id;sensor_type;location;lat;lon;timestamp;P1;durP1;ratioP1;P2;durP2;ratioP2
19760;SDS011;10039;42.632;23.408;2022-09-09T00:00:44;0.10;;;0.10;;
19760;SDS011;10039;42.632;23.408;2022-09-09T00:03:43;0.10;;;0.10;;
19760;SDS011;10039;42.632;23.408;2022-09-09T00:11:45;0.10;;;0.10;;
19760;SDS011;10039;42.632;23.408;2022-09-09T00:17:02;0.10;;;0.10;;
19760;SDS011;10039;42.632;23.408;2022-09-09T00:22:47;0.10;;;0.10;;
19760;SDS011;10039;42.632;23.408;2022-09-09T00:25:34;0.10;;;0.10;;
19760;SDS011;10039;42.632;23.408;2022-09-09T00:28:26;0.10;;;0.10;;
19760;SDS011;10039;42.632;23.408;2022-09-09T00:30:55;0.10;;;0.10;;
19760;SDS011;10039;42.632;23.408;2022-09-09T00:33:23;0.10;;;0.10;;
19760;SDS011;10039;42.632;23.408;2022-09-09T00:35:59;0.10;;;0.10;;
19760;SDS011;10039;42.632;23.408;2022-09-09T00:38:40;0.10;;;0.10;;
19760;SDS011;10039;42.632;23.408;2022-09-09T00:41:29;0.10;;;0.10;;
19760;SDS011;10039;42.632;23.408;2022-09-09T00:44:18;0.10;;;0.10;;
19760;SDS011;10039;42.632;23.408;2022-09-09T00:46:49;0.10;;;0.10;;
19760;SDS011;10039;42.632;23.408;2022-09-09T00:49:47;0.10;;;0.10;;
19760;SDS011;10039;42.632;23.408;2022-09-09T00:52:32;0.10;;;0.10;;
19760;SDS011;10039;42.632;23.408;2022-09-09T00:55:24;0.10;;;0.10;;
19760;SDS011;10039;42.632;23.408;2022-09-09T00:57:58;0.10;;;0.10;;
19760;SDS011;10039;42.632;23.408;2022-09-09T01:00:27;0.10;;;0.10;;
19760;SDS011;10039;42.632;23.408;2022-09-09T01:05:54;0.10;;;0.10;;
19760;SDS011;10039;42.632;23.408;2022-09-09T01:11:32;0.10;;;0.10;;
19760;SDS011;10039;42.632;23.408;2022-09-09T01:14:16;0.10;;;0.10;;
19760;SDS011;10039;42.632;23.408;2022-09-09T01:16:54;0.10;;;0.10;;
19760;SDS011;10039;42.632;23.408;2022-09-09T01:19:27;0.10;;;0.10;;
19760;SDS011;10039;42.632;23.408;2022-09-09T01:22:20;0.10;;;0.10;;
19760;SDS011;10039;42.632;23.408;2022-09-09T01:27:34;0.10;;;0.10;;
19760;SDS011;10039;42.632;23.408;2022-09-09T01:30:05;0.10;;;0.10;;
19760;SDS011;10039;42.632;23.408;2022-09-09T01:35:03;0.10;;;0.10;;
19760;SDS011;10039;42.632;23.408;2022-09-09T01:37:29;0.10;;;0.10;;
19760;SDS011;10039;42.632;23.408;2022-09-09T01:39:55;0.10;;;0.10;;
19760;SDS011;10039;42.632;23.408;2022-09-09T01:42:20;0.10;;;0.10;;
19760;SDS011;10039;42.632;23.408;2022-09-09T01:44:45;0.10;;;0.10;;
19760;SDS011;10039;42.632;23.408;2022-09-09T01:47:11;0.10;;;0.10;;
19760;SDS011;10039;42.632;23.408;2022-09-09T01:49:36;0.10;;;0.10;;
19760;SDS011;10039;42.632;23.408;2022-09-09T01:52:02;0.10;;;0.10;;
19760;SDS011;10039;42.632;23.408;2022-09-09T01:54:29;0.10;;;0.10;;
19760;SDS011;10039;42.632;23.408;2022-09-09T02:02:33;0.10;;;0.10;;
19760;SDS011;10039;42.632;23.408;2022-09-09T02:05:12;0.13;;;0.13;;
19760;SDS011;10039;42.632;23.408;2022-09-09T02:07:40;0.10;;;0.10;;
19760;SDS011;10039;42.632;23.408;2022-09-09T02:12:53;0.10;;;0.10;;
19760;SDS011;10039;42.632;23.408;2022-09-09T02:15:36;0.10;;;0.10;;
19760;SDS011;10039;42.632;23.408;2022-09-09T02:18:10;0.08;;;0.08;;
19760;SDS011;10039;42.632;23.408;2022-09-09T02:20:39;0.10;;;0.10;;
19760;SDS011;10039;42.632;23.408;2022-09-09T02:23:08;0.10;;;0.10;;
19760;SDS011;10039;42.632;23.408;2022-09-09T02:25:36;0.10;;;0.10;;
19760;SDS011;10039;42.632;23.408;2022-09-09T02:28:03;0.10;;;0.10;;
19760;SDS011;10039;42.632;23.408;2022-09-09T02:30:32;0.10;;;0.10;;
19760;SDS011;10039;42.632;23.408;2022-09-09T02:32:59;0.10;;;0.10;;
19760;SDS011;10039;42.632;23.408;2022-09-09T02:35:28;0.10;;;0.10;;
19760;SDS011;10039;42.632;23.408;2022-09-09T02:37:56;0.10;;;0.10;;
19760;SDS011;10039;42.632;23.408;2022-09-09T02:40:26;0.10;;;0.10;;
19760;SDS011;10039;42.632;23.408;2022-09-09T02:42:53;0.10;;;0.10;;
19760;SDS011;10039;42.632;23.408;2022-09-09T02:45:20;0.15;;;0.15;;
19760;SDS011;10039;42.632;23.408;2022-09-09T02:47:51;0.10;;;0.10;;
19760;SDS011;10039;42.632;23.408;2022-09-09T02:55:46;0.10;;;0.10;;
19760;SDS011;10039;42.632;23.408;2022-09-09T02:58:17;0.10;;;0.10;;
19760;SDS011;10039;42.632;23.408;2022-09-09T03:00:46;0.10;;;0.10;;
19760;SDS011;10039;42.632;23.408;2022-09-09T03:03:14;0.10;;;0.10;;
19760;SDS011;10039;42.632;23.408;2022-09-09T03:05:41;0.10;;;0.10;;
19760;SDS011;10039;42.632;23.408;2022-09-09T03:08:07;0.10;;;0.10;;
19760;SDS011;10039;42.632;23.408;2022-09-09T03:10:33;0.10;;;0.10;;
19760;SDS011;10039;42.632;23.408;2022-09-09T03:12:59;0.15;;;0.15;;
19760;SDS011;10039;42.632;23.408;2022-09-09T03:15:25;0.10;;;0.10;;
19760;SDS011;10039;42.632;23.408;2022-09-09T03:17:55;0.10;;;0.10;;
19760;SDS011;10039;42.632;23.408;2022-09-09T03:20:22;0.10;;;0.10;;
19760;SDS011;10039;42.632;23.408;2022-09-09T03:22:48;0.20;;;0.20;;
19760;SDS011;10039;42.632;23.408;2022-09-09T03:25:17;0.10;;;0.10;;
19760;SDS011;10039;42.632;23.408;2022-09-09T03:27:43;0.20;;;0.20;;
19760;SDS011;10039;42.632;23.408;2022-09-09T03:30:09;0.20;;;0.20;;
19760;SDS011;10039;42.632;23.408;2022-09-09T03:32:34;0.17;;;0.17;;
19760;SDS011;10039;42.632;23.408;2022-09-09T03:35:00;0.20;;;0.20;;
19760;SDS011;10039;42.632;23.408;2022-09-09T03:37:25;0.10;;;0.10;;
19760;SDS011;10039;42.632;23.408;2022-09-09T03:39:51;0.10;;;0.10;;
19760;SDS011;10039;42.632;23.408;2022-09-09T03:42:19;0.10;;;0.10;;
19760;SDS011;10039;42.632;23.408;2022-09-09T03:44:45;0.10;;;0.10;;
19760;SDS011;10039;42.632;23.408;2022-09-09T03:47:18;0.10;;;0.10;;
19760;SDS011;10039;42.632;23.408;2022-09-09T03:49:44;0.00;;;0.00;;
19760;SDS011;10039;42.632;23.408;2022-09-09T03:52:13;0.10;;;0.10;;
19760;SDS011;10039;42.632;23.408;2022-09-09T03:54:40;0.10;;;0.10;;
19760;SDS011;10039;42.632;23.408;2022-09-09T03:57:06;0.10;;;0.10;;
19760;SDS011;10039;42.632;23.408;2022-09-09T03:59:32;0.10;;;0.10;;
19760;SDS011;10039;42.632;23.408;2022-09-09T04:01:57;0.10;;;0.10;;
19760;SDS011;10039;42.632;23.408;2022-09-09T04:04:24;0.00;;;0.00;;
19760;SDS011;10039;42.632;23.408;2022-09-09T04:06:51;0.10;;;0.10;;
19760;SDS011;10039;42.632;23.408;2022-09-09T04:09:16;0.10;;;0.10;;
19760;SDS011;10039;42.632;23.408;2022-09-09T04:11:42;0.20;;;0.20;;
19760;SDS011;10039;42.632;23.408;2022-09-09T04:14:07;0.10;;;0.10;;
19760;SDS011;10039;42.632;23.408;2022-09-09T04:16:34;0.10;;;0.10;;
19760;SDS011;10039;42.632;23.408;2022-09-09T04:19:01;0.20;;;0.20;;
19760;SDS011;10039;42.632;23.408;2022-09-09T04:21:29;0.10;;;0.10;;
19760;SDS011;10039;42.632;23.408;2022-09-09T04:23:55;0.17;;;0.17;;
19760;SDS011;10039;42.632;23.408;2022-09-09T04:26:20;0.20;;;0.20;;
19760;SDS011;10039;42.632;23.408;2022-09-09T04:28:45;0.10;;;0.10;;
19760;SDS011;10039;42.632;23.408;2022-09-09T04:31:21;0.10;;;0.10;;
19760;SDS011;10039;42.632;23.408;2022-09-09T04:33:51;0.13;;;0.13;;
19760;SDS011;10039;42.632;23.408;2022-09-09T04:36:17;0.10;;;0.10;;
19760;SDS011;10039;42.632;23.408;2022-09-09T04:38:44;0.10;;;0.10;;
19760;SDS011;10039;42.632;23.408;2022-09-09T04:41:10;0.10;;;0.10;;
19760;SDS011;10039;42.632;23.408;2022-09-09T04:43:36;0.10;;;0.10;;
19760;SDS011;10039;42.632;23.408;2022-09-09T04:46:02;0.10;;;0.10;;
19760;SDS011;10039;42.632;23.408;2022-09-09T04:48:28;0.10;;;0.10;;
19760;SDS011;10039;42.632;23.408;2022-09-09T04:51:00;0.10;;;0.10;;
19760;SDS011;10039;42.632;23.408;2022-09-09T04:53:29;0.10;;;0.10;;
19760;SDS011;10039;42.632;23.408;2022-09-09T04:56:27;0.10;;;0.10;;
19760;SDS011;10039;42.632;23.408;2022-09-09T04:58:46;0.10;;;0.10;;
19760;SDS011;10039;42.632;23.408;2022-09-09T05:01:12;0.10;;;0.10;;
19760;SDS011;10039;42.632;23.408;2022-09-09T05:03:40;0.10;;;0.10;;
19760;SDS011;10039;42.632;23.408;2022-09-09T05:06:15;0.10;;;0.10;;
19760;SDS011;10039;42.632;23.408;2022-09-09T05:08:43;0.10;;;0.10;;
19760;SDS011;10039;42.632;23.408;2022-09-09T05:13:48;0.10;;;0.10;;
19760;SDS011;10039;42.632;23.408;2022-09-09T05:16:15;0.15;;;0.15;;
19760;SDS011;10039;42.632;23.408;2022-09-09T05:18:41;0.10;;;0.10;;
19760;SDS011;10039;42.632;23.408;2022-09-09T05:21:08;0.10;;;0.10;;
19760;SDS011;10039;42.632;23.408;2022-09-09T05:23:34;0.10;;;0.10;;
19760;SDS011;10039;42.632;23.408;2022-09-09T05:26:00;0.10;;;0.10;;
19760;SDS011;10039;42.632;23.408;2022-09-09T05:28:26;0.10;;;0.10;;
19760;SDS011;10039;42.632;23.408;2022-09-09T05:31:02;0.13;;;0.13;;
19760;SDS011;10039;42.632;23.408;2022-09-09T05:33:36;0.10;;;0.10;;
19760;SDS011;10039;42.632;23.408;2022-09-09T05:36:05;0.10;;;0.10;;
19760;SDS011;10039;42.632;23.408;2022-09-09T05:38:35;0.10;;;0.10;;
19760;SDS011;10039;42.632;23.408;2022-09-09T05:41:01;0.00;;;0.00;;
19760;SDS011;10039;42.632;23.408;2022-09-09T05:43:28;0.10;;;0.10;;
19760;SDS011;10039;42.632;23.408;2022-09-09T05:49:03;0.10;;;0.10;;
19760;SDS011;10039;42.632;23.408;2022-09-09T05:51:25;0.10;;;0.10;;
19760;SDS011;10039;42.632;23.408;2022-09-09T05:53:53;0.10;;;0.10;;
19760;SDS011;10039;42.632;23.408;2022-09-09T05:56:20;0.10;;;0.10;;
19760;SDS011;10039;42.632;23.408;2022-09-09T05:58:50;0.10;;;0.10;;
19760;SDS011;10039;42.632;23.408;2022-09-09T06:01:20;0.10;;;0.10;;
19760;SDS011;10039;42.632;23.408;2022-09-09T06:03:47;0.10;;;0.10;;
19760;SDS011;10039;42.632;23.408;2022-09-09T06:06:14;0.10;;;0.10;;
19760;SDS011;10039;42.632;23.408;2022-09-09T06:08:43;0.10;;;0.10;;
19760;SDS011;10039;42.632;23.408;2022-09-09T06:11:11;0.10;;;0.10;;
19760;SDS011;10039;42.632;23.408;2022-09-09T06:13:41;0.10;;;0.10;;
19760;SDS011;10039;42.632;23.408;2022-09-09T06:16:11;0.10;;;0.10;;
19760;SDS011;10039;42.632;23.408;2022-09-09T06:18:38;0.10;;;0.10;;
19760;SDS011;10039;42.632;23.408;2022-09-09T06:21:05;0.10;;;0.10;;
19760;SDS011;10039;42.632;23.408;2022-09-09T06:23:35;0.08;;;0.08;;
19760;SDS011;10039;42.632;23.408;2022-09-09T06:26:08;0.10;;;0.10;;
19760;SDS011;10039;42.632;23.408;2022-09-09T06:28:38;0.10;;;0.10;;
19760;SDS011;10039;42.632;23.408;2022-09-09T06:31:06;0.10;;;0.10;;
19760;SDS011;10039;42.632;23.408;2022-09-09T06:33:34;0.10;;;0.10;;
19760;SDS011;10039;42.632;23.408;2022-09-09T06:36:02;0.10;;;0.10;;
19760;SDS011;10039;42.632;23.408;2022-09-09T06:38:28;0.10;;;0.10;;
19760;SDS011;10039;42.632;23.408;2022-09-09T06:40:54;0.10;;;0.10;;
19760;SDS011;10039;42.632;23.408;2022-09-09T06:43:23;0.03;;;0.03;;
19760;SDS011;10039;42.632;23.408;2022-09-09T06:45:53;0.10;;;0.10;;
19760;SDS011;10039;42.632;23.408;2022-09-09T06:48:25;0.00;;;0.00;;
19760;SDS011;10039;42.632;23.408;2022-09-09T06:51:13;0.10;;;0.10;;
19760;SDS011;10039;42.632;23.408;2022-09-09T06:53:39;0.10;;;0.10;;
19760;SDS011;10039;42.632;23.408;2022-09-09T06:56:18;0.10;;;0.10;;
19760;SDS011;10039;42.632;23.408;2022-09-09T06:58:55;0.10;;;0.10;;
19760;SDS011;10039;42.632;23.408;2022-09-09T07:01:24;0.10;;;0.10;;
19760;SDS011;10039;42.632;23.408;2022-09-09T07:03:54;0.10;;;0.10;;
19760;SDS011;10039;42.632;23.408;2022-09-09T07:06:21;0.08;;;0.08;;
19760;SDS011;10039;42.632;23.408;2022-09-09T07:08:51;0.10;;;0.10;;
19760;SDS011;10039;42.632;23.408;2022-09-09T07:11:20;0.03;;;0.03;;
19760;SDS011;10039;42.632;23.408;2022-09-09T07:13:47;0.00;;;0.00;;
19760;SDS011;10039;42.632;23.408;2022-09-09T07:16:14;0.00;;;0.00;;
19760;SDS011;10039;42.632;23.408;2022-09-09T07:18:42;0.05;;;0.05;;
19760;SDS011;10039;42.632;23.408;2022-09-09T07:21:11;0.05;;;0.05;;
19760;SDS011;10039;42.632;23.408;2022-09-09T07:23:38;0.00;;;0.00;;
19760;SDS011;10039;42.632;23.408;2022-09-09T07:26:11;0.10;;;0.10;;
19760;SDS011;10039;42.632;23.408;2022-09-09T07:28:38;0.10;;;0.10;;
19760;SDS011;10039;42.632;23.408;2022-09-09T07:31:04;0.00;;;0.00;;
19760;SDS011;10039;42.632;23.408;2022-09-09T07:33:32;0.00;;;0.00;;
19760;SDS011;10039;42.632;23.408;2022-09-09T07:36:06;0.10;;;0.10;;
19760;SDS011;10039;42.632;23.408;2022-09-09T07:38:43;0.00;;;0.00;;
19760;SDS011;10039;42.632;23.408;2022-09-09T07:41:11;0.00;;;0.00;;
19760;SDS011;10039;42.632;23.408;2022-09-09T07:43:45;0.03;;;0.03;;
19760;SDS011;10039;42.632;23.408;2022-09-09T07:46:13;0.00;;;0.00;;
19760;SDS011;10039;42.632;23.408;2022-09-09T07:48:45;0.00;;;0.00;;
19760;SDS011;10039;42.632;23.408;2022-09-09T07:51:14;0.00;;;0.00;;
19760;SDS011;10039;42.632;23.408;2022-09-09T07:53:45;0.00;;;0.00;;
19760;SDS011;10039;42.632;23.408;2022-09-09T07:56:15;0.08;;;0.08;;
19760;SDS011;10039;42.632;23.408;2022-09-09T07:58:44;0.00;;;0.00;;
19760;SDS011;10039;42.632;23.408;2022-09-09T08:01:13;0.00;;;0.00;;
19760;SDS011;10039;42.632;23.408;2022-09-09T08:03:41;0.00;;;0.00;;
19760;SDS011;10039;42.632;23.408;2022-09-09T08:06:09;0.00;;;0.00;;
19760;SDS011;10039;42.632;23.408;2022-09-09T08:08:37;0.00;;;0.00;;
19760;SDS011;10039;42.632;23.408;2022-09-09T08:11:13;0.00;;;0.00;;
19760;SDS011;10039;42.632;23.408;2022-09-09T08:13:41;0.00;;;0.00;;
19760;SDS011;10039;42.632;23.408;2022-09-09T08:16:09;0.00;;;0.00;;
19760;SDS011;10039;42.632;23.408;2022-09-09T08:18:35;0.00;;;0.00;;
19760;SDS011;10039;42.632;23.408;2022-09-09T08:21:05;0.00;;;0.00;;
19760;SDS011;10039;42.632;23.408;2022-09-09T08:23:37;0.00;;;0.00;;
19760;SDS011;10039;42.632;23.408;2022-09-09T08:26:16;0.00;;;0.00;;
19760;SDS011;10039;42.632;23.408;2022-09-09T08:28:52;0.00;;;0.00;;
19760;SDS011;10039;42.632;23.408;2022-09-09T08:31:23;0.00;;;0.00;;
19760;SDS011;10039;42.632;23.408;2022-09-09T08:33:53;0.05;;;0.05;;
19760;SDS011;10039;42.632;23.408;2022-09-09T08:36:21;0.00;;;0.00;;
19760;SDS011;10039;42.632;23.408;2022-09-09T08:38:49;0.00;;;0.00;;
19760;SDS011;10039;42.632;23.408;2022-09-09T08:52:37;0.00;;;0.00;;
19760;SDS011;10039;42.632;23.408;2022-09-09T08:58:48;0.05;;;0.05;;
19760;SDS011;10039;42.632;23.408;2022-09-09T09:08:43;0.00;;;0.00;;
19760;SDS011;10039;42.632;23.408;2022-09-09T09:11:18;0.00;;;0.00;;
19760;SDS011;10039;42.632;23.408;2022-09-09T09:13:48;0.00;;;0.00;;
19760;SDS011;10039;42.632;23.408;2022-09-09T09:16:30;0.00;;;0.00;;
19760;SDS011;10039;42.632;23.408;2022-09-09T09:19:03;0.00;;;0.00;;
19760;SDS011;10039;42.632;23.408;2022-09-09T09:21:34;0.00;;;0.00;;
19760;SDS011;10039;42.632;23.408;2022-09-09T09:24:18;0.00;;;0.00;;
19760;SDS011;10039;42.632;23.408;2022-09-09T09:26:46;0.00;;;0.00;;
19760;SDS011;10039;42.632;23.408;2022-09-09T09:29:13;0.00;;;0.00;;
19760;SDS011;10039;42.632;23.408;2022-09-09T09:31:53;0.00;;;0.00;;
19760;SDS011;10039;42.632;23.408;2022-09-09T09:34:23;0.00;;;0.00;;
19760;SDS011;10039;42.632;23.408;2022-09-09T09:36:54;0.00;;;0.00;;
19760;SDS011;10039;42.632;23.408;2022-09-09T09:39:29;0.00;;;0.00;;
19760;SDS011;10039;42.632;23.408;2022-09-09T09:42:09;0.00;;;0.00;;
19760;SDS011;10039;42.632;23.408;2022-09-09T09:44:40;0.00;;;0.00;;
19760;SDS011;10039;42.632;23.408;2022-09-09T09:47:14;0.00;;;0.00;;
19760;SDS011;10039;42.632;23.408;2022-09-09T09:49:54;0.00;;;0.00;;
19760;SDS011;10039;42.632;23.408;2022-09-09T09:52:24;0.00;;;0.00;;
19760;SDS011;10039;42.632;23.408;2022-09-09T09:54:57;0.00;;;0.00;;
19760;SDS011;10039;42.632;23.408;2022-09-09T09:57:30;0.00;;;0.00;;
19760;SDS011;10039;42.632;23.408;2022-09-09T10:00:16;0.00;;;0.00;;
19760;SDS011;10039;42.632;23.408;2022-09-09T10:02:45;0.00;;;0.00;;
19760;SDS011;10039;42.632;23.408;2022-09-09T10:08:03;0.00;;;0.00;;
19760;SDS011;10039;42.632;23.408;2022-09-09T10:10:48;0.00;;;0.00;;
19760;SDS011;10039;42.632;23.408;2022-09-09T10:13:38;0.00;;;0.00;;
19760;SDS011;10039;42.632;23.408;2022-09-09T10:22:02;0.00;;;0.00;;
19760;SDS011;10039;42.632;23.408;2022-09-09T10:27:18;0.00;;;0.00;;
19760;SDS011;10039;42.632;23.408;2022-09-09T10:32:49;0.00;;;0.00;;
19760;SDS011;10039;42.632;23.408;2022-09-09T10:35:49;0.00;;;0.00;;
19760;SDS011;10039;42.632;23.408;2022-09-09T10:38:29;0.00;;;0.00;;
19760;SDS011;10039;42.632;23.408;2022-09-09T10:44:12;0.00;;;0.00;;
19760;SDS011;10039;42.632;23.408;2022-09-09T10:47:03;0.00;;;0.00;;
19760;SDS011;10039;42.632;23.408;2022-09-09T10:50:24;0.00;;;0.00;;
19760;SDS011;10039;42.632;23.408;2022-09-09T10:53:02;0.00;;;0.00;;
19760;SDS011;10039;42.632;23.408;2022-09-09T10:55:43;0.00;;;0.00;;
19760;SDS011;10039;42.632;23.408;2022-09-09T10:58:14;0.00;;;0.00;;
19760;SDS011;10039;42.632;23.408;2022-09-09T11:00:52;0.00;;;0.00;;
19760;SDS011;10039;42.632;23.408;2022-09-09T11:03:25;0.00;;;0.00;;
19760;SDS011;10039;42.632;23.408;2022-09-09T11:06:06;0.00;;;0.00;;
19760;SDS011;10039;42.632;23.408;2022-09-09T11:08:39;0.00;;;0.00;;
19760;SDS011;10039;42.632;23.408;2022-09-09T11:11:13;0.00;;;0.00;;
19760;SDS011;10039;42.632;23.408;2022-09-09T11:18:51;0.00;;;0.00;;
19760;SDS011;10039;42.632;23.408;2022-09-09T11:21:46;0.00;;;0.00;;
19760;SDS011;10039;42.632;23.408;2022-09-09T11:32:20;0.00;;;0.00;;
19760;SDS011;10039;42.632;23.408;2022-09-09T11:40:59;0.00;;;0.00;;
19760;SDS011;10039;42.632;23.408;2022-09-09T11:43:45;0.00;;;0.00;;
19760;SDS011;10039;42.632;23.408;2022-09-09T11:46:12;0.00;;;0.00;;
19760;SDS011;10039;42.632;23.408;2022-09-09T11:48:41;0.00;;;0.00;;
19760;SDS011;10039;42.632;23.408;2022-09-09T11:51:11;0.00;;;0.00;;
19760;SDS011;10039;42.632;23.408;2022-09-09T11:56:28;0.00;;;0.00;;
19760;SDS011;10039;42.632;23.408;2022-09-09T12:01:29;0.00;;;0.00;;
19760;SDS011;10039;42.632;23.408;2022-09-09T12:06:49;0.00;;;0.00;;
19760;SDS011;10039;42.632;23.408;2022-09-09T12:09:46;0.00;;;0.00;;
19760;SDS011;10039;42.632;23.408;2022-09-09T12:17:25;0.00;;;0.00;;
19760;SDS011;10039;42.632;23.408;2022-09-09T12:20:12;0.00;;;0.00;;
19760;SDS011;10039;42.632;23.408;2022-09-09T12:25:39;0.00;;;0.00;;
19760;SDS011;10039;42.632;23.408;2022-09-09T12:34:16;0.00;;;0.00;;
19760;SDS011;10039;42.632;23.408;2022-09-09T12:37:13;0.00;;;0.00;;
19760;SDS011;10039;42.632;23.408;2022-09-09T12:39:47;0.00;;;0.00;;
19760;SDS011;10039;42.632;23.408;2022-09-09T12:42:19;0.00;;;0.00;;
19760;SDS011;10039;42.632;23.408;2022-09-09T12:47:26;0.00;;;0.00;;
19760;SDS011;10039;42.632;23.408;2022-09-09T12:50:16;0.00;;;0.00;;
19760;SDS011;10039;42.632;23.408;2022-09-09T12:52:57;0.00;;;0.00;;
19760;SDS011;10039;42.632;23.408;2022-09-09T12:55:30;0.00;;;0.00;;
19760;SDS011;10039;42.632;23.408;2022-09-09T12:57:58;0.10;;;0.10;;
19760;SDS011;10039;42.632;23.408;2022-09-09T13:00:26;0.00;;;0.00;;
19760;SDS011;10039;42.632;23.408;2022-09-09T13:02:59;0.10;;;0.10;;
19760;SDS011;10039;42.632;23.408;2022-09-09T13:05:41;0.00;;;0.00;;
19760;SDS011;10039;42.632;23.408;2022-09-09T13:08:13;0.00;;;0.00;;
19760;SDS011;10039;42.632;23.408;2022-09-09T13:13:21;0.00;;;0.00;;
19760;SDS011;10039;42.632;23.408;2022-09-09T13:18:47;0.00;;;0.00;;
19760;SDS011;10039;42.632;23.408;2022-09-09T13:21:14;0.00;;;0.00;;
19760;SDS011;10039;42.632;23.408;2022-09-09T13:23:40;0.00;;;0.00;;
19760;SDS011;10039;42.632;23.408;2022-09-09T13:26:06;0.00;;;0.00;;
19760;SDS011;10039;42.632;23.408;2022-09-09T13:28:55;0.00;;;0.00;;
19760;SDS011;10039;42.632;23.408;2022-09-09T13:31:53;0.00;;;0.00;;
19760;SDS011;10039;42.632;23.408;2022-09-09T13:34:29;0.00;;;0.00;;
19760;SDS011;10039;42.632;23.408;2022-09-09T13:36:59;0.00;;;0.00;;
19760;SDS011;10039;42.632;23.408;2022-09-09T13:39:27;0.00;;;0.00;;
19760;SDS011;10039;42.632;23.408;2022-09-09T13:41:53;0.00;;;0.00;;
19760;SDS011;10039;42.632;23.408;2022-09-09T13:44:21;0.00;;;0.00;;
19760;SDS011;10039;42.632;23.408;2022-09-09T13:46:58;0.00;;;0.00;;
19760;SDS011;10039;42.632;23.408;2022-09-09T13:49:26;0.00;;;0.00;;
19760;SDS011;10039;42.632;23.408;2022-09-09T13:52:03;0.00;;;0.00;;
19760;SDS011;10039;42.632;23.408;2022-09-09T13:54:32;0.00;;;0.00;;
19760;SDS011;10039;42.632;23.408;2022-09-09T13:56:58;0.00;;;0.00;;
19760;SDS011;10039;42.632;23.408;2022-09-09T13:59:26;0.00;;;0.00;;
19760;SDS011;10039;42.632;23.408;2022-09-09T14:01:52;0.00;;;0.00;;
19760;SDS011;10039;42.632;23.408;2022-09-09T14:04:19;0.00;;;0.00;;
19760;SDS011;10039;42.632;23.408;2022-09-09T14:06:47;0.00;;;0.00;;
19760;SDS011;10039;42.632;23.408;2022-09-09T14:09:14;0.00;;;0.00;;
19760;SDS011;10039;42.632;23.408;2022-09-09T14:11:42;0.00;;;0.00;;
19760;SDS011;10039;42.632;23.408;2022-09-09T14:14:09;0.00;;;0.00;;
19760;SDS011;10039;42.632;23.408;2022-09-09T14:16:34;0.00;;;0.00;;
19760;SDS011;10039;42.632;23.408;2022-09-09T14:19:00;0.00;;;0.00;;
19760;SDS011;10039;42.632;23.408;2022-09-09T14:21:27;0.00;;;0.00;;
19760;SDS011;10039;42.632;23.408;2022-09-09T14:23:53;0.00;;;0.00;;
19760;SDS011;10039;42.632;23.408;2022-09-09T14:26:19;0.00;;;0.00;;
19760;SDS011;10039;42.632;23.408;2022-09-09T14:28:46;0.00;;;0.00;;
19760;SDS011;10039;42.632;23.408;2022-09-09T14:31:12;0.00;;;0.00;;
19760;SDS011;10039;42.632;23.408;2022-09-09T14:33:38;0.00;;;0.00;;
19760;SDS011;10039;42.632;23.408;2022-09-09T14:36:04;0.00;;;0.00;;
19760;SDS011;10039;42.632;23.408;2022-09-09T14:38:31;0.00;;;0.00;;
19760;SDS011;10039;42.632;23.408;2022-09-09T14:40:58;0.00;;;0.00;;
19760;SDS011;10039;42.632;23.408;2022-09-09T14:43:24;0.00;;;0.00;;
19760;SDS011;10039;42.632;23.408;2022-09-09T14:45:51;0.00;;;0.00;;
19760;SDS011;10039;42.632;23.408;2022-09-09T14:48:17;0.00;;;0.00;;
19760;SDS011;10039;42.632;23.408;2022-09-09T14:50:44;0.00;;;0.00;;
19760;SDS011;10039;42.632;23.408;2022-09-09T14:53:09;0.00;;;0.00;;
19760;SDS011;10039;42.632;23.408;2022-09-09T14:55:35;0.00;;;0.00;;
19760;SDS011;10039;42.632;23.408;2022-09-09T14:58:02;0.00;;;0.00;;
19760;SDS011;10039;42.632;23.408;2022-09-09T15:00:28;0.00;;;0.00;;
19760;SDS011;10039;42.632;23.408;2022-09-09T15:02:54;0.00;;;0.00;;
19760;SDS011;10039;42.632;23.408;2022-09-09T15:05:20;0.00;;;0.00;;
19760;SDS011;10039;42.632;23.408;2022-09-09T15:07:47;0.00;;;0.00;;
19760;SDS011;10039;42.632;23.408;2022-09-09T15:10:13;0.00;;;0.00;;
19760;SDS011;10039;42.632;23.408;2022-09-09T15:12:39;0.00;;;0.00;;
19760;SDS011;10039;42.632;23.408;2022-09-09T15:15:05;0.00;;;0.00;;
19760;SDS011;10039;42.632;23.408;2022-09-09T15:17:31;0.00;;;0.00;;
19760;SDS011;10039;42.632;23.408;2022-09-09T15:19:56;0.00;;;0.00;;
19760;SDS011;10039;42.632;23.408;2022-09-09T15:22:22;0.00;;;0.00;;
19760;SDS011;10039;42.632;23.408;2022-09-09T15:24:49;0.00;;;0.00;;
19760;SDS011;10039;42.632;23.408;2022-09-09T15:27:15;0.00;;;0.00;;
19760;SDS011;10039;42.632;23.408;2022-09-09T15:29:41;0.00;;;0.00;;
19760;SDS011;10039;42.632;23.408;2022-09-09T15:32:07;0.00;;;0.00;;
19760;SDS011;10039;42.632;23.408;2022-09-09T15:34:33;0.00;;;0.00;;
19760;SDS011;10039;42.632;23.408;2022-09-09T15:36:59;0.00;;;0.00;;
19760;SDS011;10039;42.632;23.408;2022-09-09T15:39:24;0.00;;;0.00;;
19760;SDS011;10039;42.632;23.408;2022-09-09T15:41:50;0.00;;;0.00;;
19760;SDS011;10039;42.632;23.408;2022-09-09T15:44:16;0.00;;;0.00;;
19760;SDS011;10039;42.632;23.408;2022-09-09T15:46:50;0.00;;;0.00;;
19760;SDS011;10039;42.632;23.408;2022-09-09T15:49:19;0.00;;;0.00;;
19760;SDS011;10039;42.632;23.408;2022-09-09T15:52:08;0.00;;;0.00;;
19760;SDS011;10039;42.632;23.408;2022-09-09T15:54:36;0.00;;;0.00;;
19760;SDS011;10039;42.632;23.408;2022-09-09T15:57:04;0.00;;;0.00;;
19760;SDS011;10039;42.632;23.408;2022-09-09T15:59:31;0.00;;;0.00;;
19760;SDS011;10039;42.632;23.408;2022-09-09T16:01:58;0.03;;;0.03;;
19760;SDS011;10039;42.632;23.408;2022-09-09T16:04:25;0.00;;;0.00;;
19760;SDS011;10039;42.632;23.408;2022-09-09T16:06:58;0.00;;;0.00;;
19760;SDS011;10039;42.632;23.408;2022-09-09T16:09:26;0.00;;;0.00;;
19760;SDS011;10039;42.632;23.408;2022-09-09T16:11:55;0.00;;;0.00;;
19760;SDS011;10039;42.632;23.408;2022-09-09T16:14:27;0.00;;;0.00;;
19760;SDS011;10039;42.632;23.408;2022-09-09T16:16:53;0.00;;;0.00;;
19760;SDS011;10039;42.632;23.408;2022-09-09T16:19:19;0.03;;;0.03;;
19760;SDS011;10039;42.632;23.408;2022-09-09T16:21:46;0.00;;;0.00;;
19760;SDS011;10039;42.632;23.408;2022-09-09T16:24:14;0.00;;;0.00;;
19760;SDS011;10039;42.632;23.408;2022-09-09T16:26:43;0.00;;;0.00;;
19760;SDS011;10039;42.632;23.408;2022-09-09T16:29:11;0.00;;;0.00;;
19760;SDS011;10039;42.632;23.408;2022-09-09T16:34:23;0.00;;;0.00;;
19760;SDS011;10039;42.632;23.408;2022-09-09T16:36:50;0.00;;;0.00;;
19760;SDS011;10039;42.632;23.408;2022-09-09T16:39:19;0.00;;;0.00;;
19760;SDS011;10039;42.632;23.408;2022-09-09T16:44:41;0.00;;;0.00;;
19760;SDS011;10039;42.632;23.408;2022-09-09T16:47:07;0.00;;;0.00;;
19760;SDS011;10039;42.632;23.408;2022-09-09T16:49:32;0.05;;;0.05;;
19760;SDS011;10039;42.632;23.408;2022-09-09T16:51:58;0.00;;;0.00;;
19760;SDS011;10039;42.632;23.408;2022-09-09T16:54:24;0.00;;;0.00;;
19760;SDS011;10039;42.632;23.408;2022-09-09T16:56:51;0.00;;;0.00;;
19760;SDS011;10039;42.632;23.408;2022-09-09T16:59:18;0.00;;;0.00;;
19760;SDS011;10039;42.632;23.408;2022-09-09T17:01:45;0.00;;;0.00;;
19760;SDS011;10039;42.632;23.408;2022-09-09T17:04:15;0.00;;;0.00;;
19760;SDS011;10039;42.632;23.408;2022-09-09T17:06:49;0.00;;;0.00;;
19760;SDS011;10039;42.632;23.408;2022-09-09T17:09:15;0.00;;;0.00;;
19760;SDS011;10039;42.632;23.408;2022-09-09T17:11:42;0.00;;;0.00;;